createdAt,value
2022-12-24T00:01:05.093Z,56.38
2022-12-24T00:03:33.155Z,57.03
2022-12-24T00:06:03.971Z,56.03
2022-12-24T00:08:30.839Z,52.95
2022-12-24T00:10:58.767Z,53.30
2022-12-24T00:13:25.881Z,51.05
2022-12-24T00:15:52.784Z,60.28
2022-12-24T00:18:19.731Z,68.28
2022-12-24T00:20:50.273Z,61.90
2022-12-24T00:23:18.139Z,54.35
2022-12-24T00:25:45.390Z,71.95
2022-12-24T00:28:13.757Z,68.97
2022-12-24T00:30:42.509Z,88.78
2022-12-24T00:33:10.261Z,98.18
2022-12-24T00:35:39.286Z,112.40
2022-12-24T00:38:06.986Z,111.55
2022-12-24T00:40:33.941Z,117.32
2022-12-24T00:43:01.065Z,108.47
2022-12-24T00:45:28.224Z,122.90
2022-12-24T00:47:55.443Z,124.00
2022-12-24T00:50:22.387Z,135.05
2022-12-24T00:52:49.280Z,145.70
2022-12-24T00:55:16.243Z,133.95
2022-12-24T00:57:43.378Z,143.50
2022-12-24T01:00:10.873Z,121.90
2022-12-24T01:02:38.047Z,117.32
2022-12-24T01:05:11.741Z,146.00
2022-12-24T01:07:45.003Z,147.20
2022-12-24T01:10:14.774Z,148.50
2022-12-24T01:12:42.295Z,182.80
2022-12-24T01:15:10.769Z,162.57
2022-12-24T01:17:38.016Z,151.40
2022-12-24T01:20:07.007Z,140.65
2022-12-24T01:22:34.281Z,124.93
2022-12-24T01:25:01.144Z,123.82
2022-12-24T01:27:28.257Z,132.27
2022-12-24T01:29:55.194Z,123.72
2022-12-24T01:32:22.105Z,146.13
2022-12-24T01:34:48.964Z,155.20
2022-12-24T01:37:15.824Z,139.13
2022-12-24T01:39:42.785Z,116.65
2022-12-24T01:42:42.155Z,106.30
2022-12-24T01:45:39.797Z,104.13
2022-12-24T01:48:16.292Z,101.65
2022-12-24T01:50:43.831Z,92.20
2022-12-24T01:53:11.533Z,108.95
2022-12-24T01:55:38.846Z,116.80
2022-12-24T01:58:08.472Z,132.45
2022-12-24T02:00:35.554Z,127.15
2022-12-24T02:03:02.695Z,114.30
2022-12-24T02:05:36.921Z,121.10
2022-12-24T02:08:05.797Z,107.95
2022-12-24T02:10:32.803Z,108.50
2022-12-24T02:13:01.382Z,96.55
2022-12-24T02:15:34.976Z,101.75
2022-12-24T02:18:04.918Z,105.78
2022-12-24T02:20:50.579Z,93.90
2022-12-24T02:23:23.553Z,94.93
2022-12-24T02:26:32.392Z,91.47
2022-12-24T02:29:23.293Z,93.25
2022-12-24T02:32:05.137Z,87.43
2022-12-24T02:34:51.696Z,94.40
2022-12-24T02:37:25.245Z,91.18
2022-12-24T02:40:22.388Z,95.35
2022-12-24T02:42:55.623Z,92.60
2022-12-24T02:45:28.656Z,97.55
2022-12-24T02:47:56.313Z,92.60
2022-12-24T02:50:24.751Z,96.28
2022-12-24T02:52:51.780Z,104.55
2022-12-24T02:56:03.536Z,102.90
2022-12-24T02:58:48.455Z,102.43
2022-12-24T03:01:46.947Z,125.00
2022-12-24T03:04:40.501Z,116.88
2022-12-24T03:07:31.659Z,122.28
2022-12-24T03:10:21.619Z,125.25
2022-12-24T03:12:52.463Z,121.03
2022-12-24T03:15:24.440Z,123.75
2022-12-24T03:17:54.529Z,119.38
2022-12-24T03:20:28.740Z,119.70
2022-12-24T03:22:55.762Z,128.80
2022-12-24T03:25:25.880Z,123.07
2022-12-24T03:27:53.434Z,127.63
2022-12-24T03:30:20.858Z,116.07
2022-12-24T03:32:47.846Z,120.65
2022-12-24T03:35:14.797Z,122.65
2022-12-24T03:37:41.830Z,119.00
2022-12-24T03:40:09.499Z,117.28
2022-12-24T03:42:36.460Z,128.50
2022-12-24T03:45:03.557Z,123.07
2022-12-24T03:47:31.329Z,121.78
2022-12-24T03:49:58.297Z,123.90
2022-12-24T03:52:25.195Z,125.20
2022-12-24T03:54:52.147Z,124.60
2022-12-24T03:57:19.040Z,122.43
2022-12-24T03:59:45.950Z,116.78
2022-12-24T04:02:12.946Z,112.80
2022-12-24T04:04:40.044Z,127.65
2022-12-24T04:07:07.281Z,120.82
2022-12-24T04:09:34.446Z,109.95
2022-12-24T04:12:01.406Z,115.28
2022-12-24T04:14:28.507Z,116.05
2022-12-24T04:16:55.460Z,116.68
2022-12-24T04:19:22.340Z,117.88
2022-12-24T04:21:49.192Z,120.40
2022-12-24T04:24:16.092Z,116.40
2022-12-24T04:26:42.976Z,108.75
2022-12-24T04:29:09.868Z,113.05
2022-12-24T04:31:36.936Z,113.15
2022-12-24T04:34:04.007Z,112.95
2022-12-24T04:36:30.915Z,123.55
2022-12-24T04:38:57.845Z,125.38
2022-12-24T04:41:25.170Z,127.47
2022-12-24T04:43:54.845Z,117.43
2022-12-24T04:46:25.511Z,126.22
2022-12-24T04:48:54.406Z,125.60
2022-12-24T04:51:22.219Z,117.60
2022-12-24T04:53:49.926Z,107.35
2022-12-24T04:56:19.560Z,116.00
2022-12-24T04:58:46.601Z,115.95
2022-12-24T05:01:17.457Z,116.28
2022-12-24T05:03:45.170Z,118.38
2022-12-24T05:06:14.246Z,110.82
2022-12-24T05:08:41.508Z,118.88
2022-12-24T05:11:08.459Z,126.68
2022-12-24T05:13:44.057Z,123.80
2022-12-24T05:16:14.472Z,122.18
2022-12-24T05:18:41.693Z,132.00
2022-12-24T05:21:15.267Z,118.82
2022-12-24T05:24:00.659Z,116.88
2022-12-24T05:26:35.620Z,120.90
2022-12-24T05:29:04.125Z,117.68
2022-12-24T05:31:33.527Z,113.00
2022-12-24T05:34:03.622Z,106.00
2022-12-24T05:36:30.659Z,105.50
2022-12-24T05:38:57.940Z,117.20
2022-12-24T05:41:25.589Z,111.65
2022-12-24T05:43:52.653Z,125.93
2022-12-24T05:46:21.663Z,103.05
2022-12-24T05:48:49.804Z,105.80
2022-12-24T05:51:22.391Z,98.53
2022-12-24T05:53:50.936Z,88.97
2022-12-24T05:56:21.526Z,95.55
2022-12-24T05:58:48.642Z,71.15
2022-12-24T06:01:16.195Z,68.55
2022-12-24T06:03:43.151Z,58.20
2022-12-24T06:06:13.461Z,59.17
2022-12-24T06:08:41.810Z,47.67
2022-12-24T06:11:11.618Z,49.88
2022-12-24T06:13:39.502Z,45.10
2022-12-24T06:16:09.092Z,41.33
2022-12-24T06:18:36.831Z,38.70
2022-12-24T06:21:05.535Z,37.45
2022-12-24T06:23:34.656Z,36.35
2022-12-24T06:26:02.798Z,37.63
2022-12-24T06:28:31.828Z,33.67
2022-12-24T06:31:02.951Z,40.63
2022-12-24T06:33:31.910Z,35.53
2022-12-24T06:35:59.108Z,35.85
2022-12-24T06:38:26.212Z,39.72
2022-12-24T06:40:53.309Z,35.55
2022-12-24T06:43:20.177Z,33.25
2022-12-24T06:45:47.900Z,36.03
2022-12-24T06:48:15.851Z,33.28
2022-12-24T06:50:43.059Z,35.45
2022-12-24T06:53:10.658Z,32.45
2022-12-24T06:55:38.228Z,37.08
2022-12-24T06:58:05.211Z,32.92
2022-12-24T07:00:32.315Z,37.42
2022-12-24T07:02:59.257Z,33.70
2022-12-24T07:05:26.238Z,26.75
2022-12-24T07:07:53.174Z,29.60
2022-12-24T07:10:21.719Z,27.33
2022-12-24T07:12:48.956Z,33.15
2022-12-24T07:15:16.978Z,27.33
2022-12-24T07:17:44.130Z,25.10
2022-12-24T07:20:14.978Z,33.05
2022-12-24T07:22:42.897Z,29.48
2022-12-24T07:25:11.090Z,27.48
2022-12-24T07:27:39.294Z,26.92
2022-12-24T07:30:07.355Z,31.25
2022-12-24T07:32:34.411Z,30.63
2022-12-24T07:35:01.536Z,30.20
2022-12-24T07:37:28.524Z,29.35
2022-12-24T07:39:55.663Z,35.33
2022-12-24T07:42:22.559Z,29.20
2022-12-24T07:44:49.588Z,33.15
2022-12-24T07:47:16.479Z,37.53
2022-12-24T07:49:43.523Z,39.78
2022-12-24T07:52:10.526Z,42.13
2022-12-24T07:54:37.479Z,46.85
2022-12-24T07:57:04.453Z,45.05
2022-12-24T07:59:31.316Z,48.10
2022-12-24T08:01:58.639Z,43.25
2022-12-24T08:04:25.616Z,38.10
2022-12-24T08:06:52.493Z,37.55
2022-12-24T08:09:19.614Z,39.42
2022-12-24T08:11:51.911Z,37.60
2022-12-24T08:14:20.060Z,35.13
2022-12-24T08:16:47.133Z,37.00
2022-12-24T08:19:14.111Z,38.63
2022-12-24T08:21:41.032Z,35.10
2022-12-24T08:24:08.307Z,29.25
2022-12-24T08:26:35.331Z,34.88
2022-12-24T08:29:03.934Z,28.10
2022-12-24T08:31:31.496Z,25.73
2022-12-24T08:33:58.505Z,23.95
2022-12-24T08:36:25.474Z,22.48
2022-12-24T08:38:52.397Z,23.92
2022-12-24T08:41:19.272Z,26.02
2022-12-24T08:43:46.185Z,30.67
2022-12-24T08:46:13.128Z,26.77
2022-12-24T08:48:40.113Z,27.23
2022-12-24T08:51:09.100Z,26.45
2022-12-24T08:53:36.083Z,25.85
2022-12-24T08:56:05.049Z,29.48
2022-12-24T08:58:32.509Z,24.58
2022-12-24T09:01:00.108Z,22.85
2022-12-24T09:03:28.314Z,25.95
2022-12-24T09:05:55.840Z,22.65
2022-12-24T09:08:22.874Z,21.25
2022-12-24T09:10:49.790Z,22.08
2022-12-24T09:13:16.744Z,26.08
2022-12-24T09:15:52.350Z,24.58
2022-12-24T09:18:19.206Z,24.80
2022-12-24T09:20:47.069Z,25.63
2022-12-24T09:23:14.804Z,23.85
2022-12-24T09:25:43.424Z,22.02
2022-12-24T09:28:10.772Z,24.17
2022-12-24T09:30:38.031Z,29.10
2022-12-24T09:33:04.909Z,22.83
2022-12-24T09:35:32.069Z,19.00
2022-12-24T09:38:05.092Z,14.18
2022-12-24T09:40:41.009Z,16.30
2022-12-24T09:43:20.281Z,17.33
2022-12-24T09:45:54.638Z,12.15
2022-12-24T09:48:28.267Z,12.45
2022-12-24T09:51:04.982Z,14.37
2022-12-24T09:53:37.561Z,14.45
2022-12-24T09:56:12.905Z,17.75
2022-12-24T09:58:44.827Z,19.10
2022-12-24T10:01:20.717Z,8.55
2022-12-24T10:03:48.271Z,10.90
2022-12-24T10:06:25.135Z,11.13
2022-12-24T10:09:10.040Z,8.55
2022-12-24T10:11:49.847Z,15.82
2022-12-24T10:14:47.655Z,14.48
2022-12-24T10:17:41.648Z,15.50
2022-12-24T10:20:28.713Z,10.95
2022-12-24T10:23:07.718Z,14.35
2022-12-24T10:25:44.545Z,15.63
2022-12-24T10:28:18.266Z,12.10
2022-12-24T10:30:49.692Z,15.93
2022-12-24T10:33:22.531Z,18.58
2022-12-24T10:35:54.357Z,16.92
2022-12-24T10:38:21.342Z,23.33
2022-12-24T10:40:51.739Z,13.05
2022-12-24T10:43:24.647Z,20.58
2022-12-24T10:46:01.727Z,13.13
2022-12-24T10:48:50.355Z,14.07
2022-12-24T10:51:22.788Z,18.10
2022-12-24T10:53:51.748Z,21.77
2022-12-24T10:56:21.041Z,18.67
2022-12-24T10:58:54.000Z,23.67
2022-12-24T11:01:48.288Z,15.45
2022-12-24T11:04:18.048Z,15.90
2022-12-24T11:07:00.085Z,17.85
2022-12-24T11:09:28.870Z,18.23
2022-12-24T11:12:02.469Z,11.48
2022-12-24T11:14:35.715Z,12.55
2022-12-24T11:17:03.409Z,13.52
2022-12-24T11:19:41.581Z,15.35
2022-12-24T11:22:20.676Z,15.57
2022-12-24T11:25:18.931Z,11.70
2022-12-24T11:27:50.819Z,9.85
2022-12-24T11:30:24.852Z,12.35
2022-12-24T11:33:18.944Z,17.90
2022-12-24T11:35:53.154Z,7.93
2022-12-24T11:38:23.225Z,5.15
2022-12-24T11:40:58.918Z,3.60
2022-12-24T11:43:44.389Z,4.90
2022-12-24T11:46:13.716Z,4.00
2022-12-24T11:48:40.689Z,9.82
2022-12-24T11:51:19.675Z,7.88
2022-12-24T11:53:56.551Z,6.28
2022-12-24T11:56:32.859Z,4.53
2022-12-24T11:59:09.596Z,4.80
2022-12-24T12:01:48.622Z,3.50
2022-12-24T12:04:27.911Z,4.88
2022-12-24T12:07:01.946Z,3.00
2022-12-24T12:09:32.659Z,3.92
2022-12-24T12:12:08.239Z,5.07
2022-12-24T12:14:49.069Z,5.22
2022-12-24T12:17:26.741Z,5.30
2022-12-24T12:20:19.772Z,3.30
2022-12-24T12:23:05.432Z,4.13
2022-12-24T12:25:51.517Z,4.20
2022-12-24T12:28:36.616Z,4.18
2022-12-24T12:31:16.455Z,6.50
2022-12-24T12:33:53.519Z,4.20
2022-12-24T12:36:30.379Z,3.40
2022-12-24T12:38:57.304Z,3.25
2022-12-24T12:41:31.266Z,3.05
2022-12-24T12:44:04.127Z,9.23
2022-12-24T12:46:57.209Z,3.10
2022-12-24T12:49:56.087Z,4.20
2022-12-24T12:52:52.509Z,6.05
2022-12-24T12:55:56.255Z,4.32
2022-12-24T12:58:41.454Z,5.15
2022-12-24T13:01:33.264Z,3.30
2022-12-24T13:04:12.223Z,4.93
2022-12-24T13:06:57.636Z,5.65
2022-12-24T13:09:47.957Z,4.68
2022-12-24T13:12:35.368Z,7.00
2022-12-24T13:15:19.904Z,7.72
2022-12-24T13:18:01.715Z,8.18
2022-12-24T13:20:31.346Z,4.35
2022-12-24T13:23:02.215Z,6.50
2022-12-24T13:25:39.664Z,6.78
2022-12-24T13:28:24.853Z,4.90
2022-12-24T13:31:11.758Z,4.82
2022-12-24T13:33:38.679Z,5.95
2022-12-24T13:36:11.072Z,4.65
2022-12-24T13:38:46.871Z,6.72
2022-12-24T13:41:38.263Z,4.57
2022-12-24T13:44:17.974Z,4.72
2022-12-24T13:47:00.101Z,6.25
2022-12-24T13:49:52.649Z,4.90
2022-12-24T13:52:34.498Z,5.20
2022-12-24T13:55:15.883Z,5.93
2022-12-24T13:57:54.742Z,5.43
2022-12-24T14:00:21.598Z,3.58
2022-12-24T14:02:56.736Z,5.00
2022-12-24T14:05:37.858Z,4.63
2022-12-24T14:08:10.301Z,5.60
2022-12-24T14:10:42.553Z,6.13
2022-12-24T14:13:40.556Z,6.18
2022-12-24T14:16:13.423Z,3.20
2022-12-24T14:18:43.688Z,3.72
2022-12-24T14:21:23.184Z,4.32
2022-12-24T14:23:57.689Z,3.97
2022-12-24T14:26:30.235Z,5.20
2022-12-24T14:29:02.353Z,6.18
2022-12-24T14:31:29.385Z,6.18
2022-12-24T14:34:12.928Z,7.93
2022-12-24T14:36:42.897Z,8.18
2022-12-24T14:39:17.211Z,5.22
2022-12-24T14:41:57.064Z,8.23
2022-12-24T14:44:36.721Z,7.45
2022-12-24T14:47:41.390Z,8.38
2022-12-24T14:50:08.274Z,6.00
2022-12-24T14:53:04.731Z,8.70
2022-12-24T14:55:47.067Z,4.85
2022-12-24T14:58:23.064Z,4.45
2022-12-24T15:00:51.022Z,8.00
2022-12-24T15:03:21.385Z,6.97
2022-12-24T15:05:54.608Z,3.83
2022-12-24T15:08:28.954Z,7.75
2022-12-24T15:11:01.663Z,5.80
2022-12-24T15:13:41.698Z,7.18
2022-12-24T15:16:11.855Z,7.00
2022-12-24T15:18:46.438Z,8.27
2022-12-24T15:21:33.685Z,9.55
2022-12-24T15:24:01.089Z,7.60
2022-12-24T15:26:30.721Z,9.77
2022-12-24T15:29:03.828Z,6.68
2022-12-24T15:31:31.771Z,5.82
2022-12-24T15:33:59.568Z,6.55
2022-12-24T15:36:35.455Z,9.13
2022-12-24T15:39:06.486Z,5.72
2022-12-24T15:42:00.162Z,6.03
2022-12-24T15:44:38.933Z,4.60
2022-12-24T15:47:14.709Z,5.18
2022-12-24T15:49:46.951Z,4.88
2022-12-24T15:52:17.436Z,6.95
2022-12-24T15:54:48.529Z,6.82
2022-12-24T15:57:29.865Z,8.52
2022-12-24T15:59:58.469Z,6.50
2022-12-24T16:02:33.059Z,4.13
2022-12-24T16:05:18.702Z,4.30
2022-12-24T16:08:21.816Z,4.78
2022-12-24T16:10:53.054Z,4.65
2022-12-24T16:13:28.535Z,5.53
2022-12-24T16:16:02.205Z,6.30
2022-12-24T16:18:38.478Z,5.15
2022-12-24T16:21:07.513Z,6.78
2022-12-24T16:23:45.974Z,4.43
2022-12-24T16:26:13.139Z,3.92
2022-12-24T16:28:40.119Z,6.05
2022-12-24T16:31:07.207Z,3.30
2022-12-24T16:33:34.318Z,5.18
2022-12-24T16:36:01.261Z,4.60
2022-12-24T16:38:48.111Z,5.78
2022-12-24T16:41:15.311Z,5.20
2022-12-24T16:43:51.314Z,4.63
2022-12-24T16:46:18.762Z,5.75
2022-12-24T16:48:48.652Z,6.05
2022-12-24T16:51:15.593Z,5.18
2022-12-24T16:53:42.849Z,3.40
2022-12-24T16:56:09.927Z,6.00
2022-12-24T16:58:36.945Z,4.13
2022-12-24T17:01:08.784Z,5.50
2022-12-24T17:03:36.395Z,6.57
2022-12-24T17:06:07.677Z,7.60
2022-12-24T17:08:34.799Z,3.47
2022-12-24T17:11:01.700Z,3.50
2022-12-24T17:13:28.684Z,6.50
2022-12-24T17:15:55.637Z,4.47
2022-12-24T17:18:22.562Z,3.40
2022-12-24T17:20:58.912Z,4.03
2022-12-24T17:23:26.117Z,5.60
2022-12-24T17:25:53.068Z,6.82
2022-12-24T17:28:20.087Z,4.00
2022-12-24T17:30:47.210Z,9.88
2022-12-24T17:33:15.001Z,5.40
2022-12-24T17:35:43.871Z,7.10
2022-12-24T17:38:10.739Z,6.07
2022-12-24T17:40:37.677Z,8.63
2022-12-24T17:43:04.599Z,4.63
2022-12-24T17:45:31.570Z,4.70
2022-12-24T17:47:58.468Z,3.55
2022-12-24T17:50:25.372Z,8.63
2022-12-24T17:52:52.468Z,6.97
2022-12-24T17:55:19.416Z,3.83
2022-12-24T17:57:46.372Z,6.85
2022-12-24T18:00:14.122Z,6.90
2022-12-24T18:02:41.219Z,6.80
2022-12-24T18:05:08.506Z,4.45
2022-12-24T18:07:35.605Z,5.38
2022-12-24T18:10:03.191Z,6.00
2022-12-24T18:12:30.285Z,8.00
2022-12-24T18:14:57.320Z,7.80
2022-12-24T18:17:24.358Z,6.38
2022-12-24T18:19:51.552Z,5.10
2022-12-24T18:22:18.419Z,9.32
2022-12-24T18:24:45.372Z,6.43
2022-12-24T18:27:12.324Z,11.98
2022-12-24T18:29:41.693Z,5.30
2022-12-24T18:32:09.134Z,6.63
2022-12-24T18:34:36.151Z,6.80
2022-12-24T18:37:03.095Z,5.63
2022-12-24T18:39:29.956Z,7.50
2022-12-24T18:41:56.893Z,5.22
2022-12-24T18:44:25.536Z,5.55
2022-12-24T18:46:52.949Z,7.38
2022-12-24T18:49:20.129Z,5.18
2022-12-24T18:51:47.154Z,8.32
2022-12-24T18:54:14.937Z,7.55
2022-12-24T18:56:41.870Z,6.30
2022-12-24T18:59:09.767Z,7.10
2022-12-24T19:01:36.962Z,7.80
2022-12-24T19:04:04.280Z,6.10
2022-12-24T19:06:31.398Z,6.63
2022-12-24T19:09:00.140Z,7.20
2022-12-24T19:11:30.539Z,8.73
2022-12-24T19:13:58.274Z,10.50
2022-12-24T19:16:26.444Z,7.35
2022-12-24T19:18:53.611Z,7.20
2022-12-24T19:21:20.988Z,6.80
2022-12-24T19:23:49.010Z,6.30
2022-12-24T19:26:17.779Z,5.47
2022-12-24T19:28:45.720Z,7.32
2022-12-24T19:31:15.890Z,6.38
2022-12-24T19:33:45.248Z,7.15
2022-12-24T19:36:16.131Z,6.63
2022-12-24T19:38:43.275Z,7.13
2022-12-24T19:41:16.607Z,8.15
2022-12-24T19:43:49.842Z,6.78
2022-12-24T19:46:23.054Z,6.22
2022-12-24T19:48:56.321Z,8.02
2022-12-24T19:51:24.247Z,6.78
2022-12-24T19:53:52.470Z,8.02
2022-12-24T19:56:21.699Z,11.00
2022-12-24T19:58:49.107Z,10.32
2022-12-24T20:01:23.456Z,6.95
2022-12-24T20:03:52.236Z,8.52
2022-12-24T20:06:22.908Z,7.95
2022-12-24T20:08:50.253Z,10.30
2022-12-24T20:11:19.884Z,7.03
2022-12-24T20:13:47.090Z,12.50
2022-12-24T20:16:23.050Z,9.07
2022-12-24T20:18:58.434Z,8.32
2022-12-24T20:23:53.506Z,14.50
2022-12-24T20:26:23.773Z,13.77
2022-12-24T20:28:51.496Z,10.00
2022-12-24T20:31:24.772Z,10.48
2022-12-24T20:33:52.193Z,8.68
2022-12-24T20:36:20.820Z,7.68
2022-12-24T20:38:47.920Z,9.98
2022-12-24T20:41:18.704Z,8.73
2022-12-24T20:43:48.647Z,10.32
2022-12-24T20:46:18.306Z,12.70
2022-12-24T20:48:45.267Z,14.30
2022-12-24T20:51:23.865Z,9.77
2022-12-24T20:53:57.259Z,11.00
2022-12-24T20:56:24.953Z,12.93
2022-12-24T20:58:52.358Z,10.93
2022-12-24T21:01:22.925Z,7.53
2022-12-24T21:03:51.087Z,10.15
2022-12-24T21:06:19.544Z,13.55
2022-12-24T21:08:49.512Z,11.63
2022-12-24T21:11:34.983Z,9.52
2022-12-24T21:14:02.345Z,11.02
2022-12-24T21:16:33.979Z,12.43
2022-12-24T21:19:01.066Z,11.15
2022-12-24T21:21:28.236Z,9.15
2022-12-24T21:23:55.271Z,12.75
2022-12-24T21:26:22.152Z,8.73
2022-12-24T21:28:50.494Z,8.77
2022-12-24T21:31:17.890Z,9.27
2022-12-24T21:33:45.386Z,9.65
2022-12-24T21:36:13.639Z,8.60
2022-12-24T21:38:41.551Z,7.07
2022-12-24T21:41:16.552Z,10.50
2022-12-24T21:43:43.581Z,6.65
2022-12-24T21:46:20.088Z,9.50
2022-12-24T21:49:05.717Z,8.57
2022-12-24T21:51:33.310Z,7.75
2022-12-24T21:54:18.557Z,11.57
2022-12-24T21:57:04.132Z,11.02
2022-12-24T21:59:31.431Z,10.77
2022-12-24T22:01:59.221Z,8.20
2022-12-24T22:04:26.591Z,9.10
2022-12-24T22:07:12.549Z,10.23
2022-12-24T22:09:58.753Z,7.97
2022-12-24T22:12:29.575Z,15.05
2022-12-24T22:14:56.578Z,9.77
2022-12-24T22:17:25.688Z,8.55
2022-12-24T22:19:54.044Z,10.95
2022-12-24T22:22:21.634Z,7.43
2022-12-24T22:24:48.593Z,9.18
2022-12-24T22:27:15.445Z,8.10
2022-12-24T22:29:42.331Z,8.48
2022-12-24T22:32:09.802Z,12.43
2022-12-24T22:34:36.750Z,10.30
2022-12-24T22:37:03.720Z,9.35
2022-12-24T22:39:30.689Z,9.85
2022-12-24T22:41:58.306Z,9.80
2022-12-24T22:44:25.719Z,9.90
2022-12-24T22:46:52.787Z,7.55
2022-12-24T22:49:19.789Z,8.23
2022-12-24T22:51:46.667Z,8.23
2022-12-24T22:54:13.653Z,12.38
2022-12-24T22:56:41.549Z,11.52
2022-12-24T22:59:12.469Z,8.13
2022-12-24T23:01:43.268Z,7.30
2022-12-24T23:04:11.379Z,11.30
2022-12-24T23:06:39.280Z,8.23
2022-12-24T23:09:08.798Z,9.55
2022-12-24T23:11:35.957Z,10.88
2022-12-24T23:14:21.468Z,10.10
2022-12-24T23:16:48.369Z,8.32
2022-12-24T23:19:15.682Z,9.13
2022-12-24T23:21:42.824Z,9.75
2022-12-24T23:24:11.203Z,10.73
2022-12-24T23:26:38.591Z,9.38
2022-12-24T23:29:06.726Z,12.45
2022-12-24T23:31:35.027Z,12.80
2022-12-24T23:34:02.505Z,7.88
2022-12-24T23:36:29.737Z,12.18
2022-12-24T23:38:57.777Z,8.82
2022-12-24T23:41:24.855Z,8.93
2022-12-24T23:43:51.833Z,12.77
2022-12-24T23:46:19.757Z,9.93
2022-12-24T23:48:47.229Z,8.98
2022-12-24T23:51:16.821Z,10.60
2022-12-24T23:53:44.234Z,10.20
2022-12-24T23:56:12.179Z,10.93
2022-12-24T23:58:41.052Z,11.77
